Time;durP1;ratioP1;P1;durP2;ratioP2;P2;SDS_P1;SDS_P2;PMS_P1;PMS_P2;Temp;Humidity;BMP_temperature;BMP_pressure;BME280_temperature;BME280_humidity;BME280_pressure;Samples;Min_cycle;Max_cycle;Signal;HPM_P1;HPM_P2
2023/10/05 00:00:31;;;;;;;6.07;3.17;;;9.90;99.90;;;;;;8348088;28;20194;-84
2023/10/05 00:04:40;;;;;;;7.00;3.27;;;10.00;99.90;;;;;;8384827;28;20268;-82
2023/10/05 00:08:44;;;;;;;4.30;3.13;;;9.80;99.90;;;;;;8374374;28;20209;-82
2023/10/05 00:12:47;;;;;;;6.10;3.10;;;9.80;99.90;;;;;;8368569;28;20358;-82
2023/10/05 00:16:48;;;;;;;5.40;3.20;;;9.70;99.90;;;;;;8381805;28;20195;-82
2023/10/05 00:20:48;;;;;;;7.63;3.67;;;9.70;99.90;;;;;;8370264;28;20201;-83
2023/10/05 00:24:49;;;;;;;4.87;3.10;;;9.70;99.90;;;;;;8342254;28;20254;-82
2023/10/05 00:29:04;;;;;;;4.47;3.07;;;9.60;99.90;;;;;;8344924;28;20189;-84
2023/10/05 00:33:10;;;;;;;4.73;3.40;;;9.70;99.90;;;;;;8341747;28;20214;-84
2023/10/05 00:37:11;;;;;;;4.20;2.77;;;9.70;99.90;;;;;;8346386;28;20178;-84
2023/10/05 00:41:13;;;;;;;3.77;2.70;;;9.60;99.90;;;;;;8346564;28;20193;-84
2023/10/05 00:45:24;;;;;;;4.57;2.60;;;9.60;99.90;;;;;;8343048;28;20183;-83
2023/10/05 00:49:29;;;;;;;6.17;2.97;;;9.50;99.90;;;;;;8345554;28;20185;-83
2023/10/05 00:53:32;;;;;;;6.47;2.80;;;9.50;99.90;;;;;;8351445;28;20295;-82
2023/10/05 00:57:34;;;;;;;5.70;2.97;;;9.40;99.90;;;;;;8352060;28;20204;-84
2023/10/05 01:06:12;;;;;;;5.90;2.77;;;9.40;99.90;;;;;;8377503;28;20258;-83
2023/10/05 01:14:27;;;;;;;4.03;2.33;;;9.30;99.90;;;;;;8348366;28;20201;-84
2023/10/05 01:18:31;;;;;;;4.27;2.80;;;9.30;1.00;;;;;;8323909;28;20182;-84
2023/10/05 01:22:44;;;;;;;3.93;2.57;;;9.40;1.00;;;;;;8327313;28;20275;-84
2023/10/05 01:26:45;;;;;;;3.87;2.70;;;9.30;1.00;;;;;;8327368;28;20190;-84
2023/10/05 01:30:46;;;;;;;6.07;3.07;;;9.40;99.90;;;;;;8346716;28;20217;-83
2023/10/05 01:34:53;;;;;;;4.40;2.73;;;9.40;99.90;;;;;;8348669;28;20510;-82
2023/10/05 01:39:00;;;;;;;3.63;2.50;;;9.40;99.90;;;;;;8344480;28;20194;-82
2023/10/05 01:43:01;;;;;;;5.60;3.17;;;9.40;99.90;;;;;;8346994;28;20190;-82
2023/10/05 01:47:02;;;;;;;5.10;2.83;;;9.30;99.90;;;;;;8333032;28;20245;-83
2023/10/05 01:51:14;;;;;;;6.03;3.30;;;9.30;99.90;;;;;;8328838;28;20217;-82
2023/10/05 01:55:18;;;;;;;3.87;2.73;;;9.30;99.90;;;;;;8342451;28;20464;-82
2023/10/05 01:59:21;;;;;;;4.37;2.47;;;9.30;99.90;;;;;;8328031;28;20182;-82
2023/10/05 02:03:28;;;;;;;7.80;3.47;;;9.30;99.90;;;;;;8341343;28;20297;-82
2023/10/05 02:07:30;;;;;;;6.60;3.30;;;9.40;99.90;;;;;;8323541;28;20190;-82
2023/10/05 02:11:33;;;;;;;4.70;2.60;;;9.30;99.90;;;;;;8324756;28;20220;-82
2023/10/05 02:15:39;;;;;;;4.23;2.40;;;9.30;99.90;;;;;;8324390;28;20319;-82
2023/10/05 02:19:41;;;;;;;4.17;3.10;;;9.30;99.90;;;;;;8324706;28;20224;-82
2023/10/05 02:23:44;;;;;;;4.07;2.17;;;9.20;99.90;;;;;;8328544;28;20201;-80
2023/10/05 02:27:48;;;;;;;5.70;2.80;;;9.20;99.90;;;;;;8331886;28;20188;-80
2023/10/05 02:40:35;;;;;;;4.73;3.00;;;9.30;99.90;;;;;;8342556;28;20280;-80
2023/10/05 02:44:36;;;;;;;6.13;3.13;;;9.30;99.90;;;;;;8329854;28;20186;-80
2023/10/05 02:48:41;;;;;;;4.33;3.00;;;9.30;92.00;;;;;;8331275;28;20247;-81
2023/10/05 02:52:45;;;;;;;4.27;2.67;;;9.30;63.40;;;;;;8330134;28;20233;-81
2023/10/05 02:56:46;;;;;;;4.70;2.63;;;9.30;51.40;;;;;;8330584;28;20190;-82
2023/10/05 03:00:46;;;;;;;5.37;2.90;;;9.30;24.40;;;;;;8344886;28;20196;-81
2023/10/05 03:04:48;;;;;;;4.60;3.00;;;9.30;14.00;;;;;;8332782;28;20277;-81
2023/10/05 03:08:53;;;;;;;4.13;2.57;;;9.30;8.20;;;;;;8346264;28;20276;-80
2023/10/05 03:12:54;;;;;;;6.00;3.30;;;9.30;32.40;;;;;;8321412;28;20205;-80
2023/10/05 03:16:57;;;;;;;5.83;2.83;;;9.30;68.30;;;;;;8349648;28;20207;-81
2023/10/05 03:20:59;;;;;;;5.13;2.73;;;9.30;71.20;;;;;;8346651;28;20256;-82
2023/10/05 03:24:59;;;;;;;4.67;3.53;;;9.20;99.90;;;;;;8332532;28;20232;-81
2023/10/05 03:29:00;;;;;;;5.90;3.03;;;9.20;99.90;;;;;;8349420;28;20224;-80
2023/10/05 03:33:04;;;;;;;4.70;2.90;;;9.20;99.90;;;;;;8330446;28;20216;-81
2023/10/05 03:37:12;;;;;;;7.03;3.10;;;9.20;99.90;;;;;;8341285;28;20291;-81
2023/10/05 03:41:16;;;;;;;6.10;3.20;;;9.20;99.90;;;;;;8330288;28;20200;-81
2023/10/05 03:45:17;;;;;;;6.37;3.20;;;9.20;99.90;;;;;;8346542;28;20187;-82
2023/10/05 03:49:21;;;;;;;7.10;3.40;;;9.20;99.90;;;;;;8326338;28;20279;-80
2023/10/05 03:53:24;;;;;;;6.23;3.20;;;9.30;99.90;;;;;;8332414;28;20607;-81
2023/10/05 03:57:30;;;;;;;7.40;2.97;;;9.30;99.90;;;;;;8326734;28;20218;-80
2023/10/05 04:01:31;;;;;;;6.17;3.63;;;9.20;99.90;;;;;;8343856;28;20256;-82
2023/10/05 04:05:33;;;;;;;5.37;3.20;;;9.20;99.90;;;;;;8327529;28;20189;-81
2023/10/05 04:09:35;;;;;;;5.43;3.13;;;9.20;99.90;;;;;;8329162;28;20243;-81
2023/10/05 04:13:38;;;;;;;7.43;3.27;;;9.30;99.90;;;;;;8344768;28;20182;-80
2023/10/05 04:17:39;;;;;;;5.27;2.80;;;9.40;28.50;;;;;;8326299;28;20186;-80
2023/10/05 04:21:40;;;;;;;7.17;3.50;;;9.40;1.00;;;;;;8325546;28;20209;-80
2023/10/05 04:25:44;;;;;;;7.53;3.27;;;9.40;1.00;;;;;;8325642;28;20183;-81
2023/10/05 04:29:45;;;;;;;7.87;3.33;;;9.40;1.00;;;;;;8326870;28;20194;-81
2023/10/05 04:33:46;;;;;;;6.27;2.73;;;9.40;1.00;;;;;;8326505;28;20269;-80
2023/10/05 04:37:51;;;;;;;5.57;2.77;;;9.40;1.00;;;;;;8327762;28;20395;-80
2023/10/05 04:41:56;;;;;;;5.40;2.87;;;9.40;1.00;;;;;;8330797;28;20300;-81
2023/10/05 04:45:57;;;;;;;7.80;3.33;;;9.40;1.00;;;;;;8324920;28;20376;-81
2023/10/05 04:49:58;;;;;;;5.33;3.03;;;9.40;1.00;;;;;;8330063;28;20304;-81
2023/10/05 04:54:00;;;;;;;7.10;3.63;;;9.40;1.00;;;;;;8326505;28;20183;-81
2023/10/05 04:58:53;;;;;;;5.60;3.07;;;9.40;1.00;;;;;;8327567;28;20333;-82
2023/10/05 05:06:45;;;;;;;6.20;3.87;;;9.50;1.00;;;;;;8341836;28;20202;-80
2023/10/05 05:10:46;;;;;;;7.73;3.87;;;9.40;1.00;;;;;;8339522;28;20301;-82
2023/10/05 05:14:49;;;;;;;7.47;3.63;;;9.40;1.00;;;;;;8318242;28;20188;-81
2023/10/05 05:18:55;;;;;;;6.40;3.40;;;9.40;1.00;;;;;;8320122;28;20196;-82
2023/10/05 05:22:58;;;;;;;10.50;3.77;;;9.40;1.00;;;;;;8324618;28;20219;-82
2023/10/05 05:31:23;;;;;;;4.83;2.77;;;9.60;1.00;;;;;;8366446;28;20202;-84
2023/10/05 05:35:24;;;;;;;6.17;3.00;;;9.70;1.00;;;;;;8340655;28;20189;-86
2023/10/05 05:39:32;;;;;;;7.60;3.63;;;9.90;99.90;;;;;;8364119;28;20182;-85
2023/10/05 05:43:36;;;;;;;7.03;3.43;;;10.10;99.90;;;;;;8355918;28;20346;-85
2023/10/05 05:47:37;;;;;;;5.77;3.23;;;10.30;99.90;;;;;;8361702;28;20259;-84
2023/10/05 05:51:37;;;;;;;6.30;3.57;;;10.50;99.90;;;;;;8361037;28;20237;-83
2023/10/05 05:55:44;;;;;;;8.60;3.47;;;10.70;99.90;;;;;;8346835;28;20196;-85
2023/10/05 05:59:46;;;;;;;6.73;3.13;;;10.90;99.90;;;;;;8347811;28;20183;-86
2023/10/05 06:03:48;;;;;;;9.07;3.87;;;11.20;99.90;;;;;;8336229;28;20227;-82
2023/10/05 06:07:50;;;;;;;5.80;3.17;;;11.30;99.90;;;;;;8352134;28;20245;-85
2023/10/05 06:11:51;;;;;;;5.53;3.37;;;11.50;99.90;;;;;;8333532;28;20237;-83
2023/10/05 06:15:54;;;;;;;9.37;3.73;;;11.60;99.90;;;;;;8347852;28;20189;-86
2023/10/05 06:19:56;;;;;;;8.77;3.37;;;11.70;95.80;;;;;;8345417;28;20162;-85
2023/10/05 06:23:57;;;;;;;7.93;3.60;;;11.90;92.00;;;;;;8331663;28;20273;-87
2023/10/05 06:27:59;;;;;;;6.67;3.60;;;12.00;81.00;;;;;;8325585;28;20251;-86
2023/10/05 06:32:04;;;;;;;7.87;3.47;;;12.10;63.60;;;;;;8325869;28;20206;-87
2023/10/05 06:36:05;;;;;;;4.80;2.87;;;12.30;47.30;;;;;;8329564;28;20186;-86
2023/10/05 06:40:12;;;;;;;8.70;3.60;;;12.40;37.20;;;;;;8329745;28;20306;-87
2023/10/05 06:44:13;;;;;;;10.73;3.53;;;12.50;32.00;;;;;;8347087;28;20198;-87
2023/10/05 06:48:14;;;;;;;10.93;3.60;;;12.60;26.70;;;;;;8331656;28;20190;-86
2023/10/05 06:52:16;;;;;;;8.90;3.90;;;12.70;23.10;;;;;;8349281;28;20219;-87
2023/10/05 06:56:18;;;;;;;8.00;4.00;;;12.70;20.90;;;;;;8330426;28;20261;-86
2023/10/05 07:00:21;;;;;;;8.17;3.93;;;12.80;17.30;;;;;;8329319;28;20186;-88
2023/10/05 07:04:25;;;;;;;10.47;4.10;;;12.90;11.10;;;;;;8326567;28;20202;-87
2023/10/05 07:08:26;;;;;;;11.43;3.80;;;13.10;3.90;;;;;;8345965;28;20373;-86
2023/10/05 07:12:26;;;;;;;10.13;3.60;;;13.30;1.00;;;;;;8351195;28;20194;-85
2023/10/05 07:16:29;;;;;;;8.90;4.67;;;13.60;1.00;;;;;;8331965;28;20654;-87
2023/10/05 07:20:30;;;;;;;7.53;3.60;;;13.80;1.00;;;;;;8330927;28;20264;-87
2023/10/05 07:24:31;;;;;;;6.70;3.50;;;14.00;1.00;;;;;;8348893;28;20214;-87
2023/10/05 07:28:37;;;;;;;7.13;3.60;;;14.20;1.00;;;;;;8329437;28;20340;-86
2023/10/05 07:32:39;;;;;;;8.83;3.60;;;14.20;1.00;;;;;;8347626;28;20278;-84
2023/10/05 07:36:40;;;;;;;9.33;3.60;;;14.30;1.00;;;;;;8348253;28;20216;-86
2023/10/05 07:40:42;;;;;;;8.27;3.97;;;14.30;1.00;;;;;;8332108;28;20190;-83
2023/10/05 07:44:43;;;;;;;7.30;3.60;;;14.60;1.00;;;;;;8346281;28;20185;-89
2023/10/05 07:48:45;;;;;;;7.57;3.80;;;14.90;1.00;;;;;;8328772;28;20212;-86
2023/10/05 07:52:48;;;;;;;8.83;3.70;;;15.10;1.00;;;;;;8350193;28;20202;-87
2023/10/05 07:56:52;;;;;;;9.23;3.80;;;15.50;1.00;;;;;;8330965;28;20205;-85
2023/10/05 08:00:54;;;;;;;8.57;4.03;;;15.60;1.00;;;;;;8327773;28;20198;-87
2023/10/05 08:04:55;;;;;;;8.90;4.23;;;15.60;1.00;;;;;;8348596;28;20182;-87
2023/10/05 08:08:56;;;;;;;7.17;3.47;;;15.80;1.00;;;;;;8343181;28;20182;-86
2023/10/05 08:13:03;;;;;;;8.90;3.40;;;15.60;1.00;;;;;;8329284;28;20225;-87
2023/10/05 08:17:05;;;;;;;10.73;3.80;;;15.70;1.00;;;;;;8348795;28;20205;-87
2023/10/05 08:21:07;;;;;;;10.90;3.93;;;15.70;1.00;;;;;;8329579;28;20231;-87
2023/10/05 08:25:11;;;;;;;11.00;4.23;;;15.70;1.00;;;;;;8329544;28;20262;-87
2023/10/05 08:29:12;;;;;;;8.33;4.20;;;16.00;1.00;;;;;;8331416;28;20846;-87
2023/10/05 08:33:19;;;;;;;7.37;3.40;;;15.90;1.00;;;;;;8332643;28;20213;-87
2023/10/05 08:37:22;;;;;;;7.83;3.77;;;16.00;1.00;;;;;;8329040;28;20259;-86
2023/10/05 08:41:41;;;;;;;6.20;3.47;;;16.30;1.00;;;;;;8333077;28;20185;-87
2023/10/05 08:45:46;;;;;;;7.30;3.60;;;16.10;1.00;;;;;;8331468;28;20258;-87
2023/10/05 08:49:49;;;;;;;8.83;3.40;;;16.00;1.00;;;;;;8344667;28;20395;-88
2023/10/05 08:53:54;;;;;;;8.80;4.00;;;16.10;1.00;;;;;;8349406;28;21481;-88
2023/10/05 08:58:03;;;;;;;7.30;3.33;;;15.90;1.00;;;;;;8328076;28;20181;-86
2023/10/05 09:02:07;;;;;;;8.13;3.47;;;16.10;1.00;;;;;;8330140;28;20202;-84
2023/10/05 09:06:16;;;;;;;8.50;3.50;;;16.30;1.00;;;;;;8346728;28;20190;-83
2023/10/05 09:10:25;;;;;;;9.63;3.80;;;16.40;1.00;;;;;;8330132;28;20398;-83
2023/10/05 09:14:28;;;;;;;7.70;3.47;;;16.10;1.00;;;;;;8326336;28;20190;-87
2023/10/05 09:18:30;;;;;;;8.57;3.30;;;16.30;1.00;;;;;;8329053;28;20240;-87
2023/10/05 09:22:47;;;;;;;7.70;3.20;;;16.50;1.00;;;;;;8329345;28;20198;-87
2023/10/05 09:26:57;;;;;;;9.67;3.93;;;16.60;1.00;;;;;;8329679;28;20196;-86
2023/10/05 09:31:02;;;;;;;10.07;3.43;;;16.80;1.00;;;;;;8347961;28;20240;-85
2023/10/05 09:35:04;;;;;;;10.33;3.87;;;17.10;1.00;;;;;;8340651;28;20487;-87
2023/10/05 09:39:09;;;;;;;4.83;3.00;;;17.40;1.00;;;;;;8330763;28;20189;-86
2023/10/05 09:43:10;;;;;;;8.07;2.83;;;17.70;1.00;;;;;;8327263;28;20189;-89
2023/10/05 09:47:13;;;;;;;5.80;2.73;;;17.50;1.00;;;;;;8329483;28;20186;-84
2023/10/05 09:51:14;;;;;;;8.53;2.90;;;17.30;1.00;;;;;;8345126;28;20213;-89
2023/10/05 09:55:19;;;;;;;7.53;2.67;;;17.40;1.00;;;;;;8329469;28;20205;-87
2023/10/05 09:59:21;;;;;;;4.57;2.90;;;17.40;1.00;;;;;;8321212;28;20273;-86
2023/10/05 10:03:23;;;;;;;6.43;2.70;;;17.40;1.00;;;;;;8327860;28;20236;-86
2023/10/05 10:07:26;;;;;;;8.17;3.33;;;17.50;1.00;;;;;;8345859;28;20212;-86
2023/10/05 10:11:31;;;;;;;6.93;2.77;;;17.60;1.00;;;;;;8328751;28;20218;-82
2023/10/05 10:15:35;;;;;;;6.07;2.63;;;17.50;1.00;;;;;;8331705;28;20193;-82
2023/10/05 10:19:45;;;;;;;8.47;2.30;;;17.70;1.00;;;;;;8330925;28;20182;-83
2023/10/05 10:23:59;;;;;;;7.27;2.87;;;18.00;1.00;;;;;;8330612;28;20186;-81
2023/10/05 10:28:39;;;;;;;6.37;2.50;;;18.40;1.00;;;;;;8345480;28;20388;-82
2023/10/05 10:32:43;;;;;;;8.03;2.47;;;18.90;1.00;;;;;;8330225;28;20213;-82
2023/10/05 10:36:52;;;;;;;9.80;2.80;;;19.10;1.00;;;;;;8343807;28;20197;-81
2023/10/05 10:41:09;;;;;;;5.57;2.90;;;19.30;1.00;;;;;;8346409;28;20189;-84
2023/10/05 10:45:16;;;;;;;7.10;2.50;;;18.80;1.00;;;;;;8325804;28;20190;-82
2023/10/05 10:49:19;;;;;;;4.70;2.10;;;18.50;1.00;;;;;;8350388;28;20248;-81
2023/10/05 10:53:25;;;;;;;5.90;2.63;;;18.40;1.00;;;;;;8333293;28;20317;-84
2023/10/05 10:57:25;;;;;;;5.30;2.20;;;18.60;1.00;;;;;;8350649;28;20190;-84
2023/10/05 11:01:29;;;;;;;6.93;2.40;;;18.80;1.00;;;;;;8332333;28;20212;-85
2023/10/05 11:05:41;;;;;;;5.53;2.00;;;18.60;1.00;;;;;;8352201;28;20215;-84
2023/10/05 11:09:52;;;;;;;8.43;2.50;;;17.90;1.00;;;;;;8350597;28;20273;-83
2023/10/05 11:13:56;;;;;;;10.07;2.50;;;17.70;1.00;;;;;;8334796;28;20306;-82
2023/10/05 11:17:59;;;;;;;4.87;1.90;;;17.90;1.00;;;;;;8332271;28;20190;-82
2023/10/05 11:22:04;;;;;;;7.10;2.37;;;18.20;1.00;;;;;;8350611;28;20527;-83
2023/10/05 11:30:54;;;;;;;6.37;2.00;;;18.10;1.00;;;;;;8339032;28;20229;-82
2023/10/05 11:34:55;;;;;;;4.77;2.27;;;18.00;1.00;;;;;;8320667;28;20940;-85
2023/10/05 11:39:00;;;;;;;4.00;1.60;;;18.10;1.00;;;;;;8343727;28;20192;-86
2023/10/05 11:43:06;;;;;;;4.63;1.90;;;18.10;1.00;;;;;;8346400;28;20190;-85
2023/10/05 11:47:07;;;;;;;4.43;2.10;;;18.00;1.00;;;;;;8338215;28;20264;-84
2023/10/05 11:51:13;;;;;;;4.27;2.27;;;18.00;1.00;;;;;;8343252;28;20200;-86
2023/10/05 11:55:14;;;;;;;5.47;2.50;;;18.00;1.00;;;;;;8344876;28;20178;-86
2023/10/05 11:59:28;;;;;;;5.23;2.10;;;18.20;1.00;;;;;;8366115;28;20174;-85
2023/10/05 12:03:32;;;;;;;6.70;2.37;;;18.50;1.00;;;;;;8367116;28;20374;-85
2023/10/05 12:07:33;;;;;;;4.43;2.10;;;18.60;1.00;;;;;;8352298;28;20224;-85
2023/10/05 12:11:36;;;;;;;4.33;1.87;;;18.10;1.00;;;;;;8350525;28;20257;-85
2023/10/05 12:15:37;;;;;;;7.03;2.43;;;18.00;1.00;;;;;;8332338;28;20194;-85
2023/10/05 12:19:39;;;;;;;8.17;2.43;;;18.20;1.00;;;;;;8341289;28;20205;-85
2023/10/05 12:23:40;;;;;;;6.17;2.30;;;18.20;1.00;;;;;;8336757;28;20293;-85
2023/10/05 12:27:41;;;;;;;3.17;1.90;;;18.20;1.00;;;;;;8335124;28;20182;-85
2023/10/05 12:31:51;;;;;;;6.27;2.43;;;18.60;1.00;;;;;;8333674;28;20247;-84
2023/10/05 12:35:55;;;;;;;5.27;1.90;;;18.60;1.00;;;;;;8353861;28;20333;-86
2023/10/05 12:39:56;;;;;;;2.57;1.77;;;18.00;1.00;;;;;;8354242;28;20181;-81
2023/10/05 12:43:56;;;;;;;4.13;2.37;;;17.80;1.00;;;;;;8350465;28;20185;-85
2023/10/05 12:47:57;;;;;;;6.77;2.40;;;17.80;1.00;;;;;;8354539;28;20185;-85
2023/10/05 12:52:01;;;;;;;5.80;2.43;;;17.90;1.00;;;;;;8358310;28;20296;-85
2023/10/05 12:56:04;;;;;;;5.83;2.23;;;17.80;1.00;;;;;;8329902;28;20190;-86
2023/10/05 13:00:19;;;;;;;4.13;2.00;;;17.60;1.00;;;;;;8346725;28;20185;-85
2023/10/05 13:04:22;;;;;;;4.97;2.33;;;17.90;1.00;;;;;;8328316;28;20201;-85
2023/10/05 13:08:23;;;;;;;5.83;2.10;;;18.50;1.00;;;;;;8326108;28;20248;-84
2023/10/05 13:12:30;;;;;;;6.50;2.37;;;18.30;1.00;;;;;;8324127;28;20213;-85
2023/10/05 13:16:32;;;;;;;6.23;2.33;;;17.90;1.00;;;;;;8327973;28;20196;-87
2023/10/05 13:20:33;;;;;;;5.53;2.17;;;17.90;1.00;;;;;;8327624;28;20270;-86
2023/10/05 13:24:36;;;;;;;4.53;2.20;;;18.00;1.00;;;;;;8338118;28;20627;-85
2023/10/05 13:28:37;;;;;;;8.50;1.90;;;18.30;1.00;;;;;;8327273;28;20190;-85
2023/10/05 13:32:38;;;;;;;6.10;2.07;;;18.40;1.00;;;;;;8324289;28;20206;-85
2023/10/05 13:36:39;;;;;;;5.90;1.97;;;18.70;1.00;;;;;;8326066;28;20188;-85
2023/10/05 13:40:57;;;;;;;4.27;2.37;;;18.60;1.00;;;;;;8322401;28;20189;-86
2023/10/05 13:45:05;;;;;;;5.27;2.33;;;18.40;1.00;;;;;;8325381;28;20253;-86
2023/10/05 13:49:08;;;;;;;5.80;2.30;;;18.10;1.00;;;;;;8340600;28;20194;-86
2023/10/05 13:53:10;;;;;;;7.57;2.73;;;17.90;1.00;;;;;;8341798;28;20220;-85
2023/10/05 13:57:14;;;;;;;5.73;2.93;;;17.50;1.00;;;;;;8327207;28;20380;-84
2023/10/05 14:01:16;;;;;;;4.67;2.30;;;17.30;1.00;;;;;;8324693;28;20220;-84
2023/10/05 14:05:20;;;;;;;6.53;2.80;;;17.20;1.00;;;;;;8327781;28;20227;-81
2023/10/05 14:09:32;;;;;;;5.50;2.20;;;17.20;1.00;;;;;;8320084;28;20266;-84
2023/10/05 14:13:34;;;;;;;7.83;3.00;;;17.20;1.00;;;;;;8321941;28;20463;-85
2023/10/05 14:17:45;;;;;;;4.57;2.87;;;17.30;1.00;;;;;;8327951;28;20181;-80
2023/10/05 14:21:46;;;;;;;8.27;2.40;;;17.40;1.00;;;;;;8295198;22;20226;-72
2023/10/05 14:25:48;;;;;;;5.63;2.73;;;17.70;1.00;;;;;;8253876;28;20194;-70
2023/10/05 14:29:50;;;;;;;6.03;2.53;;;17.90;1.00;;;;;;8252260;28;20193;-71
2023/10/05 14:33:54;;;;;;;5.10;2.40;;;17.90;1.00;;;;;;8258017;28;20210;-68
2023/10/05 14:37:55;;;;;;;6.60;2.70;;;18.00;1.00;;;;;;8267207;28;20230;-73
2023/10/05 14:41:57;;;;;;;5.47;2.43;;;17.70;1.00;;;;;;8250413;28;20195;-71
2023/10/05 14:46:00;;;;;;;8.27;2.70;;;17.60;1.00;;;;;;8251239;28;20179;-74
2023/10/05 14:50:07;;;;;;;6.57;2.67;;;17.60;1.00;;;;;;8269265;28;20202;-75
2023/10/05 14:54:09;;;;;;;7.07;3.00;;;17.30;1.00;;;;;;8252566;28;20360;-72
2023/10/05 14:58:13;;;;;;;6.53;3.10;;;17.10;1.00;;;;;;8250792;28;20187;-72
2023/10/05 15:02:17;;;;;;;7.40;2.73;;;16.90;1.00;;;;;;8251208;28;20223;-72
2023/10/05 15:06:18;;;;;;;7.73;3.20;;;16.80;1.00;;;;;;8253140;28;20241;-72
2023/10/05 15:10:19;;;;;;;5.93;2.80;;;16.80;1.00;;;;;;8266515;28;20211;-73
2023/10/05 15:14:20;;;;;;;8.73;2.90;;;16.70;1.00;;;;;;8269684;28;20218;-73
2023/10/05 15:18:22;;;;;;;9.40;2.83;;;16.60;1.00;;;;;;8249984;28;20191;-74
2023/10/05 15:22:24;;;;;;;4.73;2.53;;;16.50;1.00;;;;;;8250607;28;20203;-71
2023/10/05 15:26:26;;;;;;;6.93;2.80;;;16.50;1.00;;;;;;8267139;28;20191;-69
2023/10/05 15:30:27;;;;;;;7.40;2.87;;;16.40;1.00;;;;;;8255045;28;20215;-69
2023/10/05 15:34:29;;;;;;;6.70;2.63;;;16.40;1.00;;;;;;8260140;28;20222;-71
2023/10/05 15:38:31;;;;;;;5.10;2.10;;;16.30;1.00;;;;;;8260316;28;20196;-73
2023/10/05 15:42:32;;;;;;;6.43;2.20;;;16.20;1.00;;;;;;8257313;28;20186;-72
2023/10/05 15:46:36;;;;;;;4.90;2.60;;;16.10;1.00;;;;;;8273462;28;20190;-72
2023/10/05 15:50:40;;;;;;;8.03;2.67;;;16.10;1.00;;;;;;8255367;28;20212;-72
2023/10/05 15:54:41;;;;;;;5.23;2.50;;;16.00;1.00;;;;;;8259396;28;20187;-72
2023/10/05 15:58:41;;;;;;;5.27;2.63;;;15.90;1.00;;;;;;8254756;28;20573;-71
2023/10/05 16:02:52;;;;;;;8.00;2.50;;;15.90;1.00;;;;;;8258469;28;20500;-71
2023/10/05 16:07:09;;;;;;;6.63;2.70;;;15.80;1.00;;;;;;8271506;28;20290;-71
2023/10/05 16:11:10;;;;;;;4.53;2.20;;;15.80;1.00;;;;;;8258221;28;20225;-72
2023/10/05 16:15:12;;;;;;;5.93;2.13;;;15.80;1.00;;;;;;8252408;28;20785;-70
2023/10/05 16:19:15;;;;;;;5.57;2.47;;;15.80;1.00;;;;;;8271919;28;20275;-73
2023/10/05 16:23:17;;;;;;;8.67;2.23;;;15.70;1.00;;;;;;8272979;28;20294;-72
2023/10/05 16:27:18;;;;;;;4.13;1.90;;;15.50;1.00;;;;;;8257328;28;20195;-72
2023/10/05 16:31:19;;;;;;;4.57;2.30;;;15.40;1.00;;;;;;8271856;28;20222;-73
2023/10/05 16:35:21;;;;;;;4.63;2.47;;;15.40;1.00;;;;;;8253431;28;20184;-67
2023/10/05 16:39:26;;;;;;;3.03;1.80;;;15.40;1.00;;;;;;8271188;28;20282;-70
2023/10/05 16:43:27;;;;;;;5.30;2.03;;;15.40;1.00;;;;;;8244039;28;20252;-70
2023/10/05 16:47:29;;;;;;;6.07;2.30;;;15.40;1.00;;;;;;8255462;28;20191;-65
2023/10/05 16:51:30;;;;;;;8.13;2.87;;;15.30;1.00;;;;;;8255210;28;20207;-66
2023/10/05 16:55:31;;;;;;;9.30;2.80;;;15.30;1.00;;;;;;8256863;28;20195;-67
2023/10/05 16:59:31;;;;;;;3.87;2.00;;;15.30;1.00;;;;;;8254708;28;20306;-66
2023/10/05 17:03:34;;;;;;;5.73;2.33;;;15.20;1.00;;;;;;8272234;28;20223;-66
2023/10/05 17:07:35;;;;;;;6.47;2.27;;;15.10;1.00;;;;;;8254271;28;20195;-64
2023/10/05 17:11:38;;;;;;;6.93;2.53;;;15.10;1.00;;;;;;8271980;28;20225;-66
2023/10/05 17:15:39;;;;;;;5.27;2.27;;;15.10;1.00;;;;;;8254408;28;20186;-66
2023/10/05 17:19:40;;;;;;;6.63;2.67;;;15.10;1.00;;;;;;8256070;28;20252;-64
2023/10/05 17:23:41;;;;;;;6.67;2.30;;;15.10;1.00;;;;;;8270329;28;20214;-66
2023/10/05 17:27:42;;;;;;;7.63;2.27;;;15.00;1.00;;;;;;8254016;28;20532;-65
2023/10/05 17:31:43;;;;;;;6.03;2.63;;;14.90;1.00;;;;;;8254706;28;20393;-65
2023/10/05 17:35:44;;;;;;;4.53;2.30;;;14.80;1.00;;;;;;8254004;28;20195;-65
2023/10/05 17:39:45;;;;;;;5.13;2.60;;;14.80;1.00;;;;;;8268587;28;20198;-64
2023/10/05 17:43:46;;;;;;;5.70;2.53;;;14.60;1.00;;;;;;8266720;28;20203;-64
2023/10/05 17:47:49;;;;;;;4.07;2.30;;;14.60;1.00;;;;;;8251500;28;20661;-66
2023/10/05 17:51:50;;;;;;;7.50;2.30;;;14.60;1.00;;;;;;8252409;28;20215;-65
2023/10/05 17:55:52;;;;;;;5.37;2.40;;;14.70;1.00;;;;;;8253872;28;20298;-65
2023/10/05 17:59:53;;;;;;;7.60;2.67;;;14.70;1.00;;;;;;8252057;28;20242;-70
2023/10/05 18:03:55;;;;;;;5.23;2.27;;;14.70;1.00;;;;;;8259944;28;20198;-72
2023/10/05 18:07:55;;;;;;;5.37;2.70;;;14.80;1.00;;;;;;8261327;28;20191;-71
2023/10/05 18:11:59;;;;;;;5.43;2.40;;;14.80;1.00;;;;;;8256977;28;20537;-72
2023/10/05 18:16:01;;;;;;;3.90;2.00;;;14.80;1.00;;;;;;8253567;28;20211;-68
2023/10/05 18:20:03;;;;;;;7.13;2.67;;;14.90;1.00;;;;;;8252963;28;20254;-72
2023/10/05 18:24:05;;;;;;;5.40;2.70;;;14.80;1.00;;;;;;8273099;28;20198;-69
2023/10/05 18:28:09;;;;;;;6.07;2.50;;;14.90;1.00;;;;;;8261950;28;20195;-72
2023/10/05 18:32:14;;;;;;;5.63;2.53;;;14.80;1.00;;;;;;8271806;28;20215;-71
2023/10/05 18:36:17;;;;;;;4.73;2.73;;;14.80;1.00;;;;;;8259386;28;20190;-71
2023/10/05 18:40:19;;;;;;;6.87;2.33;;;14.70;1.00;;;;;;8258500;28;20194;-70
2023/10/05 18:44:21;;;;;;;8.30;2.57;;;14.70;1.00;;;;;;8259731;28;20615;-72
2023/10/05 18:48:22;;;;;;;5.57;2.80;;;14.70;1.00;;;;;;8275552;28;20187;-72
2023/10/05 18:52:23;;;;;;;5.20;2.77;;;14.70;1.00;;;;;;8259692;28;20230;-68
2023/10/05 18:56:28;;;;;;;4.73;3.10;;;14.70;1.00;;;;;;8265810;28;20191;-72
2023/10/05 19:00:31;;;;;;;6.23;2.63;;;14.70;1.00;;;;;;8261797;28;20199;-69
2023/10/05 19:04:33;;;;;;;6.13;2.57;;;14.70;1.30;;;;;;8255475;28;20290;-68
2023/10/05 19:08:34;;;;;;;7.27;3.73;;;14.40;99.90;;;;;;8259115;28;20214;-70
2023/10/05 19:12:35;;;;;;;6.80;3.40;;;13.90;99.90;;;;;;8258336;28;20261;-64
2023/10/05 19:16:36;;;;;;;7.47;3.63;;;13.60;1.00;;;;;;8256880;28;20286;-64
2023/10/05 19:20:38;;;;;;;8.10;3.60;;;13.30;99.90;;;;;;8255030;28;20205;-64
2023/10/05 19:24:39;;;;;;;5.43;3.60;;;13.00;99.90;;;;;;8256919;28;20191;-64
2023/10/05 19:28:40;;;;;;;7.73;3.97;;;12.90;99.90;;;;;;8275708;28;20195;-64
2023/10/05 19:32:42;;;;;;;9.93;3.60;;;12.70;99.90;;;;;;8258855;28;20259;-63
2023/10/05 19:36:43;;;;;;;8.30;4.00;;;12.70;99.90;;;;;;8273977;28;20238;-66
2023/10/05 19:40:44;;;;;;;10.53;4.20;;;12.60;1.00;;;;;;8256234;28;20322;-63
2023/10/05 19:44:45;;;;;;;7.07;3.60;;;12.60;99.90;;;;;;8255864;28;20294;-64
2023/10/05 19:48:46;;;;;;;8.97;4.60;;;12.50;99.90;;;;;;8254611;28;20191;-65
2023/10/05 19:52:48;;;;;;;8.03;4.47;;;12.40;99.90;;;;;;8255738;28;20211;-65
2023/10/05 19:56:52;;;;;;;11.63;4.10;;;12.40;99.90;;;;;;8270735;28;20176;-65
2023/10/05 20:00:53;;;;;;;8.37;4.23;;;12.40;99.90;;;;;;8257150;28;20210;-65
2023/10/05 20:04:54;;;;;;;7.30;4.00;;;12.40;99.90;;;;;;8272649;28;20281;-65
2023/10/05 20:08:55;;;;;;;8.40;4.10;;;12.40;99.90;;;;;;8270859;28;20197;-64
2023/10/05 20:12:56;;;;;;;6.43;4.07;;;12.40;99.90;;;;;;8261486;28;20219;-65
2023/10/05 20:16:56;;;;;;;7.27;4.33;;;12.40;99.90;;;;;;8252715;28;20600;-64
2023/10/05 20:21:11;;;;;;;7.57;4.17;;;12.20;99.90;;;;;;8278632;28;20199;-69
2023/10/05 20:25:12;;;;;;;6.63;3.83;;;12.10;99.90;;;;;;8279604;28;20187;-68
2023/10/05 20:29:13;;;;;;;7.20;4.73;;;12.00;99.90;;;;;;8253708;28;20187;-69
2023/10/05 20:33:14;;;;;;;6.93;3.97;;;12.00;99.90;;;;;;8263382;28;20210;-70
2023/10/05 20:37:16;;;;;;;8.53;3.73;;;12.10;99.90;;;;;;8263938;28;20219;-71
2023/10/05 20:41:20;;;;;;;6.30;4.00;;;12.10;99.90;;;;;;8277303;28;20188;-70
2023/10/05 20:45:23;;;;;;;7.47;4.23;;;11.90;99.90;;;;;;8280323;28;20187;-70
2023/10/05 20:49:33;;;;;;;5.20;3.60;;;11.80;99.90;;;;;;8263146;28;20185;-67
2023/10/05 20:53:35;;;;;;;8.90;4.40;;;11.60;99.90;;;;;;8279661;28;20248;-69
2023/10/05 20:57:37;;;;;;;7.57;4.33;;;11.50;99.90;;;;;;8278675;28;20210;-69
2023/10/05 21:01:39;;;;;;;9.93;4.80;;;11.40;99.90;;;;;;8281985;28;20218;-70
2023/10/05 21:05:40;;;;;;;9.33;5.80;;;11.30;99.90;;;;;;8269801;28;20188;-70
2023/10/05 21:09:42;;;;;;;8.57;4.57;;;11.30;99.90;;;;;;8277702;28;20234;-69
2023/10/05 21:13:45;;;;;;;8.20;5.27;;;11.20;99.90;;;;;;8262636;28;20311;-68
2023/10/05 21:17:46;;;;;;;9.20;4.77;;;11.10;99.90;;;;;;8260298;28;20197;-70
2023/10/05 21:21:47;;;;;;;6.33;5.00;;;11.00;99.90;;;;;;8264427;28;20781;-69
2023/10/05 21:25:51;;;;;;;5.70;4.30;;;10.90;99.90;;;;;;8258683;28;20252;-69
2023/10/05 21:29:56;;;;;;;10.30;5.00;;;10.80;99.90;;;;;;8261855;28;20193;-70
2023/10/05 21:33:57;;;;;;;6.87;4.47;;;10.70;99.90;;;;;;8276587;28;20224;-70
2023/10/05 21:38:03;;;;;;;8.17;4.53;;;10.70;99.90;;;;;;8281412;28;20182;-69
2023/10/05 21:42:04;;;;;;;7.67;4.00;;;10.60;99.90;;;;;;8261409;28;20203;-70
2023/10/05 21:46:05;;;;;;;8.27;4.97;;;10.50;99.90;;;;;;8257893;28;20213;-69
2023/10/05 21:50:08;;;;;;;9.80;4.60;;;10.50;99.90;;;;;;8256511;28;20182;-69